Scottsdale, AZ (85250)

5:50 AM MST on April 24, 2017 (GMT -0700)
Old Town Scottsdale-North | | Change Station

Elev 1273 ft 33.52 °N, 111.91 °W | Updated 7 seconds ago

Clear
Clear
63.3 °F
Feels Like 63.3 °F
N
0.0
Wind Variable Wind from NNW
Gusts 0.0 mph

Today
High -- | Low -- °F
--% Chance of Precip.
Yesterday
High -- | Low -- °F
Precip. -- in
Pressure 29.66 in
Visibility 10.0 miles
Clouds Clear
Dew Point 33 °F
Humidity 32%
Rainfall 0.00 in
Snow Depth Not available.
5:46 AM 7:05 PM
Waning Crescent, 6% visible
METAR KSDL 241153Z 00000KT 10SM CLR 20/M02 A2973 RMK AO2 SLP043 T02001017 10283 20200 50001
Pressure 29.66 in
Visibility 10.0 miles
Clouds Clear
Dew Point 33 °F
Humidity 32%
Rainfall 0.00 in
Snow Depth Not available.
5:46 AM 7:05 PM
Waning Crescent, 6% visible
METAR KSDL 241153Z 00000KT 10SM CLR 20/M02 A2973 RMK AO2 SLP043 T02001017 10283 20200 50001

Get Severe Weather Alerts

Thanks for signing up!

Be on the lookout for a verification email in your inbox.

You'll start receiving the daily forecast at 8 AM.

×

10-Day Weather Forecast

Almanac

Astronomy

Apr. 24, 2017 Rise Set
Actual Time
Civil Twilight
Nautical Twilight
Astronomical Twilight
Moon
Length of Visible Light
Length of Day
Tomorrow will be .
, % of the Moon is Illuminated

Today's Extremes

State Highs State Lows

Community

WunderPhotos

WunderBlog® & News

Nearby

Air Quality

  Air Quality AQ Index Pollutant
Not available.

Snow Depth

Station Depth Elevation

Earthquake Activity

City Distance Mag. Time & Date
Minimum magnitude displayed is 2.5.

Coastal Water Temperatures

Place Temperature

Stations

Nearby Weather Stations

Station Location Temp. Windchill Dew Point Humidity Wind Precip. Elev Updated Type
                   

Watches & Warnings

There are currently no watches in effect.